Terminal Aerodrome Forecast
Issued by NWS Charleston, WV

Current Version | Previous Version | Graphics & Text | Print | Product List | Glossary On
Versions: 1 2 3 4 5 6 7 8 9 10 11 12 13 14 15 16 17 18 19 20 21 22 23 24
000
FTUS41 KRLX 291501 AAB
TAFBKW
TAF AMD
KBKW 291501Z 2915/3012 29004KT P6SM BKN015
     FM291600 30005KT P6SM VCTS SCT025 SCT035CB
     FM292300 30004KT P6SM SCT035
     FM300500 00000KT P6SM VCTS SCT025CB
     FM300800 00000KT P6SM VCTS BKN025CB=

USA.gov is the U.S. government's official web portal to all federal, state and local government web resources and services.